sensor_id;sensor_type;location;lat;lon;timestamp;pressure;altitude;pressure_sealevel;temperature
64904;BMP280;51401;48.882;12.598;2023-03-12T00:00:31;92601.13;;;0.55
64904;BMP280;51401;48.882;12.598;2023-03-12T00:02:56;92592.91;;;0.60
64904;BMP280;51401;48.882;12.598;2023-03-12T00:05:22;92587.81;;;0.60
64904;BMP280;51401;48.882;12.598;2023-03-12T00:07:50;92622.75;;;0.60
64904;BMP280;51401;48.882;12.598;2023-03-12T00:10:15;92648.34;;;0.56
64904;BMP280;51401;48.882;12.598;2023-03-12T00:12:41;92655.13;;;0.50
64904;BMP280;51401;48.882;12.598;2023-03-12T00:15:07;92626.84;;;0.39
64904;BMP280;51401;48.882;12.598;2023-03-12T00:17:32;92539.03;;;0.35
64904;BMP280;51401;48.882;12.598;2023-03-12T00:19:58;92458.97;;;0.22
64904;BMP280;51401;48.882;12.598;2023-03-12T00:22:23;92375.44;;;0.11
64904;BMP280;51401;48.882;12.598;2023-03-12T00:24:54;92319.25;;;0.00
64904;BMP280;51401;48.882;12.598;2023-03-12T00:27:20;92266.75;;;-0.11
64904;BMP280;51401;48.882;12.598;2023-03-12T00:29:45;92219.78;;;-0.25
64904;BMP280;51401;48.882;12.598;2023-03-12T00:32:11;92157.38;;;-0.35
64904;BMP280;51401;48.882;12.598;2023-03-12T00:34:36;92079.78;;;-0.44
64904;BMP280;51401;48.882;12.598;2023-03-12T00:37:02;92007.16;;;-0.51
64904;BMP280;51401;48.882;12.598;2023-03-12T00:39:27;91928.03;;;-0.58
64904;BMP280;51401;48.882;12.598;2023-03-12T00:41:53;91853.16;;;-0.63
64904;BMP280;51401;48.882;12.598;2023-03-12T00:44:18;91762.31;;;-0.68
64904;BMP280;51401;48.882;12.598;2023-03-12T00:46:43;91654.03;;;-0.71
64904;BMP280;51401;48.882;12.598;2023-03-12T00:49:09;91558.84;;;-0.75
64904;BMP280;51401;48.882;12.598;2023-03-12T00:51:36;91459.34;;;-0.79
64904;BMP280;51401;48.882;12.598;2023-03-12T00:54:01;91343.72;;;-0.80
64904;BMP280;51401;48.882;12.598;2023-03-12T00:56:26;91228.16;;;-0.75
64904;BMP280;51401;48.882;12.598;2023-03-12T00:58:52;91136.31;;;-0.74
64904;BMP280;51401;48.882;12.598;2023-03-12T01:01:17;91034.78;;;-0.74
64904;BMP280;51401;48.882;12.598;2023-03-12T01:03:44;90967.63;;;-0.78
64904;BMP280;51401;48.882;12.598;2023-03-12T01:06:09;90874.63;;;-0.76
64904;BMP280;51401;48.882;12.598;2023-03-12T01:08:34;90765.06;;;-0.74
64904;BMP280;51401;48.882;12.598;2023-03-12T01:11:00;90633.53;;;-0.71
64904;BMP280;51401;48.882;12.598;2023-03-12T01:13:25;90543.06;;;-0.68
64904;BMP280;51401;48.882;12.598;2023-03-12T01:15:50;90441.75;;;-0.66
64904;BMP280;51401;48.882;12.598;2023-03-12T01:18:16;90366.97;;;-0.65
64904;BMP280;51401;48.882;12.598;2023-03-12T01:20:41;90303.31;;;-0.67
64904;BMP280;51401;48.882;12.598;2023-03-12T01:23:07;90242.41;;;-0.67
64904;BMP280;51401;48.882;12.598;2023-03-12T01:25:32;90192.13;;;-0.69
64904;BMP280;51401;48.882;12.598;2023-03-12T01:27:58;90138.34;;;-0.67
64904;BMP280;51401;48.882;12.598;2023-03-12T01:30:24;90122.50;;;-0.73
64904;BMP280;51401;48.882;12.598;2023-03-12T01:32:53;90110.81;;;-0.81
64904;BMP280;51401;48.882;12.598;2023-03-12T01:35:18;90039.09;;;-0.82
64904;BMP280;51401;48.882;12.598;2023-03-12T01:37:44;89991.38;;;-0.83
64904;BMP280;51401;48.882;12.598;2023-03-12T01:40:17;89957.50;;;-0.86
64904;BMP280;51401;48.882;12.598;2023-03-12T01:42:43;89917.19;;;-0.89
64904;BMP280;51401;48.882;12.598;2023-03-12T01:48:17;89837.00;;;-0.92
64904;BMP280;51401;48.882;12.598;2023-03-12T01:50:44;89794.16;;;-0.96
64904;BMP280;51401;48.882;12.598;2023-03-12T01:53:10;89755.41;;;-0.96
64904;BMP280;51401;48.882;12.598;2023-03-12T01:55:35;89697.75;;;-0.96
64904;BMP280;51401;48.882;12.598;2023-03-12T01:58:01;89671.03;;;-0.97
64904;BMP280;51401;48.882;12.598;2023-03-12T02:00:26;89638.44;;;-0.93
64904;BMP280;51401;48.882;12.598;2023-03-12T02:02:57;89594.56;;;-0.88
64904;BMP280;51401;48.882;12.598;2023-03-12T02:05:28;89548.28;;;-0.81
64904;BMP280;51401;48.882;12.598;2023-03-12T02:07:56;89520.00;;;-0.72
64904;BMP280;51401;48.882;12.598;2023-03-12T02:10:22;89531.88;;;-0.67
64904;BMP280;51401;48.882;12.598;2023-03-12T02:12:48;89599.81;;;-0.73
64904;BMP280;51401;48.882;12.598;2023-03-12T02:15:14;89660.09;;;-0.79
64904;BMP280;51401;48.882;12.598;2023-03-12T02:17:39;89722.75;;;-0.87
64904;BMP280;51401;48.882;12.598;2023-03-12T02:22:41;89817.81;;;-1.06
64904;BMP280;51401;48.882;12.598;2023-03-12T02:25:25;89802.88;;;-1.10
64904;BMP280;51401;48.882;12.598;2023-03-12T02:27:52;89778.88;;;-1.09
64904;BMP280;51401;48.882;12.598;2023-03-12T02:30:18;89745.31;;;-1.14
64904;BMP280;51401;48.882;12.598;2023-03-12T02:32:45;89694.19;;;-1.18
64904;BMP280;51401;48.882;12.598;2023-03-12T02:35:13;89646.53;;;-1.20
64904;BMP280;51401;48.882;12.598;2023-03-12T02:37:49;89630.22;;;-1.24
64904;BMP280;51401;48.882;12.598;2023-03-12T02:40:34;89584.69;;;-1.30
64904;BMP280;51401;48.882;12.598;2023-03-12T02:43:02;89509.53;;;-1.27
64904;BMP280;51401;48.882;12.598;2023-03-12T02:45:29;89437.19;;;-1.28
64904;BMP280;51401;48.882;12.598;2023-03-12T02:47:55;89372.25;;;-1.31
64904;BMP280;51401;48.882;12.598;2023-03-12T02:50:20;89325.09;;;-1.34
64904;BMP280;51401;48.882;12.598;2023-03-12T02:52:46;89298.69;;;-1.39
64904;BMP280;51401;48.882;12.598;2023-03-12T02:55:11;89237.19;;;-1.39
64904;BMP280;51401;48.882;12.598;2023-03-12T02:57:36;89253.38;;;-1.42
64904;BMP280;51401;48.882;12.598;2023-03-12T03:00:05;89239.38;;;-1.43
64904;BMP280;51401;48.882;12.598;2023-03-12T03:02:33;89220.94;;;-1.44
64904;BMP280;51401;48.882;12.598;2023-03-12T03:04:58;89191.72;;;-1.45
64904;BMP280;51401;48.882;12.598;2023-03-12T03:07:23;89164.31;;;-1.46
64904;BMP280;51401;48.882;12.598;2023-03-12T03:09:48;89136.28;;;-1.48
64904;BMP280;51401;48.882;12.598;2023-03-12T03:12:14;89112.69;;;-1.43
64904;BMP280;51401;48.882;12.598;2023-03-12T03:14:39;89069.97;;;-1.39
64904;BMP280;51401;48.882;12.598;2023-03-12T03:17:04;89064.06;;;-1.34
64904;BMP280;51401;48.882;12.598;2023-03-12T03:19:30;89050.09;;;-1.28
64904;BMP280;51401;48.882;12.598;2023-03-12T03:21:55;89095.84;;;-1.33
64904;BMP280;51401;48.882;12.598;2023-03-12T03:24:20;89142.44;;;-1.36
64904;BMP280;51401;48.882;12.598;2023-03-12T03:26:46;89173.16;;;-1.40
64904;BMP280;51401;48.882;12.598;2023-03-12T03:29:11;89216.00;;;-1.49
64904;BMP280;51401;48.882;12.598;2023-03-12T03:31:36;89217.16;;;-1.50
64904;BMP280;51401;48.882;12.598;2023-03-12T03:34:02;89230.66;;;-1.55
64904;BMP280;51401;48.882;12.598;2023-03-12T03:36:27;89226.19;;;-1.62
64904;BMP280;51401;48.882;12.598;2023-03-12T03:38:53;89215.00;;;-1.66
64904;BMP280;51401;48.882;12.598;2023-03-12T03:41:19;89221.56;;;-1.71
64904;BMP280;51401;48.882;12.598;2023-03-12T03:43:45;89186.75;;;-1.70
64904;BMP280;51401;48.882;12.598;2023-03-12T03:46:12;89154.03;;;-1.68
64904;BMP280;51401;48.882;12.598;2023-03-12T03:48:37;89095.47;;;-1.65
64904;BMP280;51401;48.882;12.598;2023-03-12T03:51:05;89094.59;;;-1.67
64904;BMP280;51401;48.882;12.598;2023-03-12T03:53:31;89015.50;;;-1.53
64904;BMP280;51401;48.882;12.598;2023-03-12T03:55:58;89004.19;;;-1.52
64904;BMP280;51401;48.882;12.598;2023-03-12T03:58:28;89000.28;;;-1.53
64904;BMP280;51401;48.882;12.598;2023-03-12T04:00:54;89026.06;;;-1.62
64904;BMP280;51401;48.882;12.598;2023-03-12T04:03:19;89030.78;;;-1.66
64904;BMP280;51401;48.882;12.598;2023-03-12T04:05:44;89026.91;;;-1.67
64904;BMP280;51401;48.882;12.598;2023-03-12T04:08:11;89013.53;;;-1.67
64904;BMP280;51401;48.882;12.598;2023-03-12T04:10:36;89016.59;;;-1.69
64904;BMP280;51401;48.882;12.598;2023-03-12T04:13:02;89010.81;;;-1.69
64904;BMP280;51401;48.882;12.598;2023-03-12T04:15:27;88997.50;;;-1.70
64904;BMP280;51401;48.882;12.598;2023-03-12T04:17:52;88962.41;;;-1.66
64904;BMP280;51401;48.882;12.598;2023-03-12T04:20:18;88944.34;;;-1.62
64904;BMP280;51401;48.882;12.598;2023-03-12T04:22:43;88926.13;;;-1.61
64904;BMP280;51401;48.882;12.598;2023-03-12T04:25:09;88916.34;;;-1.57
64904;BMP280;51401;48.882;12.598;2023-03-12T04:27:34;88918.38;;;-1.55
64904;BMP280;51401;48.882;12.598;2023-03-12T04:30:00;88921.25;;;-1.51
64904;BMP280;51401;48.882;12.598;2023-03-12T04:32:25;88917.22;;;-1.47
64904;BMP280;51401;48.882;12.598;2023-03-12T04:34:51;88888.88;;;-1.38
64904;BMP280;51401;48.882;12.598;2023-03-12T04:37:16;88882.97;;;-1.33
64904;BMP280;51401;48.882;12.598;2023-03-12T04:39:42;88883.34;;;-1.29
64904;BMP280;51401;48.882;12.598;2023-03-12T04:42:08;88901.28;;;-1.27
64904;BMP280;51401;48.882;12.598;2023-03-12T04:44:34;88923.94;;;-1.22
64904;BMP280;51401;48.882;12.598;2023-03-12T04:46:59;88948.94;;;-1.18
64904;BMP280;51401;48.882;12.598;2023-03-12T04:49:25;88976.84;;;-1.11
64904;BMP280;51401;48.882;12.598;2023-03-12T04:51:51;89025.69;;;-1.11
64904;BMP280;51401;48.882;12.598;2023-03-12T04:54:16;89069.66;;;-1.08
64904;BMP280;51401;48.882;12.598;2023-03-12T04:56:41;89136.53;;;-1.11
64904;BMP280;51401;48.882;12.598;2023-03-12T04:59:07;89167.81;;;-1.09
64904;BMP280;51401;48.882;12.598;2023-03-12T05:01:35;89186.28;;;-1.01
64904;BMP280;51401;48.882;12.598;2023-03-12T05:04:01;89221.97;;;-0.99
64904;BMP280;51401;48.882;12.598;2023-03-12T05:06:27;89249.44;;;-0.90
64904;BMP280;51401;48.882;12.598;2023-03-12T05:08:52;89343.88;;;-0.97
64904;BMP280;51401;48.882;12.598;2023-03-12T05:11:18;89392.75;;;-0.96
64904;BMP280;51401;48.882;12.598;2023-03-12T05:13:44;89391.34;;;-0.84
64904;BMP280;51401;48.882;12.598;2023-03-12T05:16:12;89491.34;;;-0.93
64904;BMP280;51401;48.882;12.598;2023-03-12T05:18:38;89563.34;;;-0.96
64904;BMP280;51401;48.882;12.598;2023-03-12T05:21:10;89599.03;;;-0.94
64904;BMP280;51401;48.882;12.598;2023-03-12T05:23:36;89632.81;;;-0.86
64904;BMP280;51401;48.882;12.598;2023-03-12T05:26:05;89653.97;;;-0.83
64904;BMP280;51401;48.882;12.598;2023-03-12T05:28:31;89702.66;;;-0.72
64904;BMP280;51401;48.882;12.598;2023-03-12T05:30:58;89801.69;;;-0.77
64904;BMP280;51401;48.882;12.598;2023-03-12T05:33:25;89895.44;;;-0.85
64904;BMP280;51401;48.882;12.598;2023-03-12T05:35:51;89945.03;;;-0.84
64904;BMP280;51401;48.882;12.598;2023-03-12T05:38:16;89978.41;;;-0.80
64904;BMP280;51401;48.882;12.598;2023-03-12T05:40:42;90046.97;;;-0.85
64904;BMP280;51401;48.882;12.598;2023-03-12T05:43:07;90084.34;;;-0.86
64904;BMP280;51401;48.882;12.598;2023-03-12T05:45:33;90106.00;;;-0.85
64904;BMP280;51401;48.882;12.598;2023-03-12T05:47:58;90118.22;;;-0.83
64904;BMP280;51401;48.882;12.598;2023-03-12T05:50:24;90121.38;;;-0.77
64904;BMP280;51401;48.882;12.598;2023-03-12T05:52:49;90155.81;;;-0.82
64904;BMP280;51401;48.882;12.598;2023-03-12T05:55:15;90161.53;;;-0.76
64904;BMP280;51401;48.882;12.598;2023-03-12T05:57:40;90186.00;;;-0.78
64904;BMP280;51401;48.882;12.598;2023-03-12T06:00:06;90198.63;;;-0.73
64904;BMP280;51401;48.882;12.598;2023-03-12T06:02:32;90210.16;;;-0.72
64904;BMP280;51401;48.882;12.598;2023-03-12T06:04:57;90250.56;;;-0.74
64904;BMP280;51401;48.882;12.598;2023-03-12T06:07:23;90251.19;;;-0.68
64904;BMP280;51401;48.882;12.598;2023-03-12T06:09:48;90295.06;;;-0.73
64904;BMP280;51401;48.882;12.598;2023-03-12T06:12:14;90276.75;;;-0.61
64904;BMP280;51401;48.882;12.598;2023-03-12T06:14:39;90292.66;;;-0.60
64904;BMP280;51401;48.882;12.598;2023-03-12T06:17:04;90313.81;;;-0.52
64904;BMP280;51401;48.882;12.598;2023-03-12T06:19:30;90326.47;;;-0.47
64904;BMP280;51401;48.882;12.598;2023-03-12T06:21:55;90306.75;;;-0.36
64904;BMP280;51401;48.882;12.598;2023-03-12T06:24:20;90348.78;;;-0.35
64904;BMP280;51401;48.882;12.598;2023-03-12T06:26:46;90343.81;;;-0.22
64904;BMP280;51401;48.882;12.598;2023-03-12T06:29:11;90375.91;;;-0.19
64904;BMP280;51401;48.882;12.598;2023-03-12T06:31:36;90438.31;;;-0.23
64904;BMP280;51401;48.882;12.598;2023-03-12T06:34:03;90463.94;;;-0.27
64904;BMP280;51401;48.882;12.598;2023-03-12T06:36:29;90454.44;;;-0.21
64904;BMP280;51401;48.882;12.598;2023-03-12T06:38:54;90453.91;;;-0.14
64904;BMP280;51401;48.882;12.598;2023-03-12T06:41:19;90503.13;;;-0.17
64904;BMP280;51401;48.882;12.598;2023-03-12T06:43:45;90528.31;;;-0.19
64904;BMP280;51401;48.882;12.598;2023-03-12T06:46:13;90531.09;;;-0.17
64904;BMP280;51401;48.882;12.598;2023-03-12T06:48:39;90535.72;;;-0.21
64904;BMP280;51401;48.882;12.598;2023-03-12T06:51:10;90531.53;;;-0.18
64904;BMP280;51401;48.882;12.598;2023-03-12T06:53:36;90519.03;;;-0.11
64904;BMP280;51401;48.882;12.598;2023-03-12T06:56:02;90524.34;;;-0.09
64904;BMP280;51401;48.882;12.598;2023-03-12T06:58:28;90493.72;;;0.13
64904;BMP280;51401;48.882;12.598;2023-03-12T07:00:53;90397.91;;;0.73
64904;BMP280;51401;48.882;12.598;2023-03-12T07:03:19;90342.59;;;1.60
64904;BMP280;51401;48.882;12.598;2023-03-12T07:05:46;90707.53;;;1.89
64904;BMP280;51401;48.882;12.598;2023-03-12T07:08:11;91080.38;;;2.46
64904;BMP280;51401;48.882;12.598;2023-03-12T07:10:37;91550.56;;;2.09
64904;BMP280;51401;48.882;12.598;2023-03-12T07:13:02;91833.25;;;2.10
64904;BMP280;51401;48.882;12.598;2023-03-12T07:15:27;92055.97;;;1.77
64904;BMP280;51401;48.882;12.598;2023-03-12T07:17:53;92102.16;;;1.84
64904;BMP280;51401;48.882;12.598;2023-03-12T07:20:18;92117.94;;;2.02
64904;BMP280;51401;48.882;12.598;2023-03-12T07:22:43;92282.09;;;1.71
64904;BMP280;51401;48.882;12.598;2023-03-12T07:25:09;92214.81;;;1.82
64904;BMP280;51401;48.882;12.598;2023-03-12T07:27:35;92220.56;;;1.77
64904;BMP280;51401;48.882;12.598;2023-03-12T07:30:00;92325.69;;;1.44
64904;BMP280;51401;48.882;12.598;2023-03-12T07:32:26;92282.38;;;1.44
64904;BMP280;51401;48.882;12.598;2023-03-12T07:34:51;92190.44;;;1.47
64904;BMP280;51401;48.882;12.598;2023-03-12T07:37:17;92090.78;;;1.79
64904;BMP280;51401;48.882;12.598;2023-03-12T07:39:42;92053.34;;;1.91
64904;BMP280;51401;48.882;12.598;2023-03-12T07:42:08;92065.81;;;2.28
64904;BMP280;51401;48.882;12.598;2023-03-12T07:44:34;92084.56;;;2.70
64904;BMP280;51401;48.882;12.598;2023-03-12T07:47:01;92304.53;;;2.97
64904;BMP280;51401;48.882;12.598;2023-03-12T07:49:26;92457.28;;;3.08
64904;BMP280;51401;48.882;12.598;2023-03-12T07:51:51;92709.06;;;3.17
64904;BMP280;51401;48.882;12.598;2023-03-12T07:54:17;92844.56;;;2.71
64904;BMP280;51401;48.882;12.598;2023-03-12T07:56:42;92917.47;;;2.81
64904;BMP280;51401;48.882;12.598;2023-03-12T07:59:07;92959.00;;;2.90
64904;BMP280;51401;48.882;12.598;2023-03-12T08:01:33;92930.06;;;3.16
64904;BMP280;51401;48.882;12.598;2023-03-12T08:03:58;93046.03;;;2.87
64904;BMP280;51401;48.882;12.598;2023-03-12T08:06:24;92993.22;;;2.93
64904;BMP280;51401;48.882;12.598;2023-03-12T08:08:50;92980.41;;;3.02
64904;BMP280;51401;48.882;12.598;2023-03-12T08:11:15;92911.00;;;3.26
64904;BMP280;51401;48.882;12.598;2023-03-12T08:13:40;93000.63;;;3.55
64904;BMP280;51401;48.882;12.598;2023-03-12T08:16:06;93120.31;;;3.42
64904;BMP280;51401;48.882;12.598;2023-03-12T08:18:31;93118.34;;;3.37
64904;BMP280;51401;48.882;12.598;2023-03-12T08:20:57;93132.91;;;3.14
64904;BMP280;51401;48.882;12.598;2023-03-12T08:23:22;93123.88;;;3.45
64904;BMP280;51401;48.882;12.598;2023-03-12T08:25:48;93167.81;;;3.75
64904;BMP280;51401;48.882;12.598;2023-03-12T08:28:15;93323.53;;;3.68
64904;BMP280;51401;48.882;12.598;2023-03-12T08:30:48;93336.00;;;3.39
64904;BMP280;51401;48.882;12.598;2023-03-12T08:33:13;93378.91;;;3.09
64904;BMP280;51401;48.882;12.598;2023-03-12T08:35:39;93325.06;;;3.03
64904;BMP280;51401;48.882;12.598;2023-03-12T08:38:04;93220.81;;;2.98
64904;BMP280;51401;48.882;12.598;2023-03-12T08:40:30;93106.72;;;3.36
64904;BMP280;51401;48.882;12.598;2023-03-12T08:42:55;93186.44;;;3.35
64904;BMP280;51401;48.882;12.598;2023-03-12T08:45:20;93275.63;;;3.50
64904;BMP280;51401;48.882;12.598;2023-03-12T08:47:46;93233.69;;;3.57
64904;BMP280;51401;48.882;12.598;2023-03-12T08:50:12;93232.94;;;3.65
64904;BMP280;51401;48.882;12.598;2023-03-12T08:52:38;93307.28;;;3.88
64904;BMP280;51401;48.882;12.598;2023-03-12T08:55:04;93497.31;;;4.19
64904;BMP280;51401;48.882;12.598;2023-03-12T08:57:31;93696.84;;;4.91
64904;BMP280;51401;48.882;12.598;2023-03-12T08:59:56;93915.69;;;4.67
64904;BMP280;51401;48.882;12.598;2023-03-12T09:02:22;94064.50;;;4.85
64904;BMP280;51401;48.882;12.598;2023-03-12T09:04:48;94201.72;;;4.68
64904;BMP280;51401;48.882;12.598;2023-03-12T09:07:14;94264.69;;;4.94
64904;BMP280;51401;48.882;12.598;2023-03-12T09:09:42;94386.97;;;5.09
64904;BMP280;51401;48.882;12.598;2023-03-12T09:12:08;94437.25;;;5.89
64904;BMP280;51401;48.882;12.598;2023-03-12T09:14:33;94487.75;;;5.84
64904;BMP280;51401;48.882;12.598;2023-03-12T09:16:58;94546.63;;;7.00
64904;BMP280;51401;48.882;12.598;2023-03-12T09:19:24;94691.56;;;7.21
64904;BMP280;51401;48.882;12.598;2023-03-12T09:21:49;94822.22;;;6.84
64904;BMP280;51401;48.882;12.598;2023-03-12T09:24:14;94832.28;;;6.91
64904;BMP280;51401;48.882;12.598;2023-03-12T09:26:40;94893.59;;;6.15
64904;BMP280;51401;48.882;12.598;2023-03-12T09:29:05;94850.63;;;5.87
64904;BMP280;51401;48.882;12.598;2023-03-12T09:31:30;94831.50;;;5.88
64904;BMP280;51401;48.882;12.598;2023-03-12T09:33:56;94795.13;;;5.90
64904;BMP280;51401;48.882;12.598;2023-03-12T09:36:21;94838.25;;;5.70
64904;BMP280;51401;48.882;12.598;2023-03-12T09:38:46;94793.72;;;6.01
64904;BMP280;51401;48.882;12.598;2023-03-12T09:41:19;94818.09;;;6.74
64904;BMP280;51401;48.882;12.598;2023-03-12T09:43:50;94900.84;;;6.85
64904;BMP280;51401;48.882;12.598;2023-03-12T09:46:23;94933.31;;;7.07
64904;BMP280;51401;48.882;12.598;2023-03-12T09:48:50;94969.25;;;7.11
64904;BMP280;51401;48.882;12.598;2023-03-12T09:51:42;94978.44;;;6.71
64904;BMP280;51401;48.882;12.598;2023-03-12T09:54:15;94958.59;;;6.44
64904;BMP280;51401;48.882;12.598;2023-03-12T09:56:46;94903.28;;;6.11
64904;BMP280;51401;48.882;12.598;2023-03-12T09:59:11;94869.75;;;6.67
64904;BMP280;51401;48.882;12.598;2023-03-12T10:06:58;95014.53;;;6.83
64904;BMP280;51401;48.882;12.598;2023-03-12T10:09:44;95040.09;;;7.03
64904;BMP280;51401;48.882;12.598;2023-03-12T10:15:30;94944.91;;;6.62
64904;BMP280;51401;48.882;12.598;2023-03-12T10:25:58;95011.50;;;7.50
64904;BMP280;51401;48.882;12.598;2023-03-12T10:28:26;95123.19;;;7.96
64904;BMP280;51401;48.882;12.598;2023-03-12T10:30:56;95204.25;;;7.95
64904;BMP280;51401;48.882;12.598;2023-03-12T10:33:35;95180.63;;;8.09
64904;BMP280;51401;48.882;12.598;2023-03-12T10:36:16;95217.56;;;8.06
64904;BMP280;51401;48.882;12.598;2023-03-12T10:38:42;95197.66;;;7.26
64904;BMP280;51401;48.882;12.598;2023-03-12T10:41:13;95178.03;;;7.32
64904;BMP280;51401;48.882;12.598;2023-03-12T10:43:40;95150.34;;;7.08
64904;BMP280;51401;48.882;12.598;2023-03-12T10:48:43;95027.28;;;6.87
64904;BMP280;51401;48.882;12.598;2023-03-12T10:51:11;94957.38;;;7.01
64904;BMP280;51401;48.882;12.598;2023-03-12T10:53:41;94895.72;;;6.85
64904;BMP280;51401;48.882;12.598;2023-03-12T10:56:14;94871.19;;;7.17
64904;BMP280;51401;48.882;12.598;2023-03-12T10:58:51;94796.38;;;6.63
64904;BMP280;51401;48.882;12.598;2023-03-12T11:01:25;94632.94;;;6.71
64904;BMP280;51401;48.882;12.598;2023-03-12T11:03:52;94582.56;;;6.82
64904;BMP280;51401;48.882;12.598;2023-03-12T11:06:24;94641.69;;;6.94
64904;BMP280;51401;48.882;12.598;2023-03-12T11:09:03;94721.88;;;6.59
64904;BMP280;51401;48.882;12.598;2023-03-12T11:11:31;94608.28;;;6.61
64904;BMP280;51401;48.882;12.598;2023-03-12T11:14:28;94600.56;;;6.61
64904;BMP280;51401;48.882;12.598;2023-03-12T11:16:54;94596.91;;;6.71
64904;BMP280;51401;48.882;12.598;2023-03-12T11:19:33;94591.66;;;6.74
64904;BMP280;51401;48.882;12.598;2023-03-12T11:22:02;94583.28;;;6.82
64904;BMP280;51401;48.882;12.598;2023-03-12T11:24:28;94578.03;;;6.19
64904;BMP280;51401;48.882;12.598;2023-03-12T11:27:19;94398.41;;;6.30
64904;BMP280;51401;48.882;12.598;2023-03-12T11:29:49;94344.13;;;6.28
64904;BMP280;51401;48.882;12.598;2023-03-12T11:32:19;94261.44;;;5.99
64904;BMP280;51401;48.882;12.598;2023-03-12T11:34:48;94021.03;;;5.81
64904;BMP280;51401;48.882;12.598;2023-03-12T11:37:28;93485.56;;;5.76
64904;BMP280;51401;48.882;12.598;2023-03-12T11:40:11;93052.03;;;5.55
64904;BMP280;51401;48.882;12.598;2023-03-12T11:42:56;92824.31;;;5.55
64904;BMP280;51401;48.882;12.598;2023-03-12T12:09:58;92378.19;;;5.32
64904;BMP280;51401;48.882;12.598;2023-03-12T12:12:37;92156.41;;;5.44
64904;BMP280;51401;48.882;12.598;2023-03-12T12:15:30;91945.66;;;5.24
64904;BMP280;51401;48.882;12.598;2023-03-12T12:18:19;91986.44;;;5.27
64904;BMP280;51401;48.882;12.598;2023-03-12T12:20:56;92268.56;;;5.44
64904;BMP280;51401;48.882;12.598;2023-03-12T12:26:11;92499.63;;;5.71
64904;BMP280;51401;48.882;12.598;2023-03-12T12:36:51;92278.41;;;5.67
64904;BMP280;51401;48.882;12.598;2023-03-12T12:39:29;92175.53;;;5.43
64904;BMP280;51401;48.882;12.598;2023-03-12T12:42:01;91896.69;;;5.27
64904;BMP280;51401;48.882;12.598;2023-03-12T12:44:43;91622.56;;;5.24
64904;BMP280;51401;48.882;12.598;2023-03-12T12:47:13;91526.38;;;5.18
64904;BMP280;51401;48.882;12.598;2023-03-12T12:49:45;91334.50;;;5.21
64904;BMP280;51401;48.882;12.598;2023-03-12T12:52:14;91381.34;;;5.22
64904;BMP280;51401;48.882;12.598;2023-03-12T13:02:44;91913.38;;;5.50
64904;BMP280;51401;48.882;12.598;2023-03-12T13:07:51;92080.38;;;5.47
64904;BMP280;51401;48.882;12.598;2023-03-12T13:12:58;92124.00;;;5.47
64904;BMP280;51401;48.882;12.598;2023-03-12T13:20:24;92075.25;;;5.36
64904;BMP280;51401;48.882;12.598;2023-03-12T13:25:40;92061.78;;;5.24
64904;BMP280;51401;48.882;12.598;2023-03-12T13:36:45;91940.72;;;5.31
64904;BMP280;51401;48.882;12.598;2023-03-12T13:41:40;91845.19;;;5.25
64904;BMP280;51401;48.882;12.598;2023-03-12T13:47:27;91646.84;;;5.23
64904;BMP280;51401;48.882;12.598;2023-03-12T13:49:54;91557.56;;;5.21
64904;BMP280;51401;48.882;12.598;2023-03-12T13:55:01;91233.44;;;4.99
64904;BMP280;51401;48.882;12.598;2023-03-12T13:57:39;90912.56;;;4.67
64904;BMP280;51401;48.882;12.598;2023-03-12T14:00:17;90407.03;;;4.63
64904;BMP280;51401;48.882;12.598;2023-03-12T14:02:48;89891.75;;;4.62
64904;BMP280;51401;48.882;12.598;2023-03-12T14:05:15;89423.31;;;4.62
64904;BMP280;51401;48.882;12.598;2023-03-12T14:08:06;88928.47;;;4.58
64904;BMP280;51401;48.882;12.598;2023-03-12T14:10:47;88499.47;;;4.62
64904;BMP280;51401;48.882;12.598;2023-03-12T14:18:51;87667.94;;;4.60
64904;BMP280;51401;48.882;12.598;2023-03-12T14:21:18;87371.41;;;4.64
64904;BMP280;51401;48.882;12.598;2023-03-12T14:23:50;87008.34;;;4.68
64904;BMP280;51401;48.882;12.598;2023-03-12T14:26:24;86526.47;;;4.75
64904;BMP280;51401;48.882;12.598;2023-03-12T14:29:29;86135.19;;;4.75
64904;BMP280;51401;48.882;12.598;2023-03-12T14:31:59;85868.44;;;4.65
64904;BMP280;51401;48.882;12.598;2023-03-12T14:34:29;85480.00;;;4.75
64904;BMP280;51401;48.882;12.598;2023-03-12T14:37:10;85182.84;;;4.76
64904;BMP280;51401;48.882;12.598;2023-03-12T14:39:45;84737.41;;;4.87
64904;BMP280;51401;48.882;12.598;2023-03-12T14:42:21;84400.59;;;4.86
64904;BMP280;51401;48.882;12.598;2023-03-12T14:45:12;84117.63;;;4.79
64904;BMP280;51401;48.882;12.598;2023-03-12T14:47:39;83849.41;;;4.73
64904;BMP280;51401;48.882;12.598;2023-03-12T14:50:06;83626.63;;;4.66
64904;BMP280;51401;48.882;12.598;2023-03-12T14:52:31;83229.44;;;4.65
64904;BMP280;51401;48.882;12.598;2023-03-12T14:55:00;82841.31;;;4.63
64904;BMP280;51401;48.882;12.598;2023-03-12T14:57:27;82391.81;;;4.65
64904;BMP280;51401;48.882;12.598;2023-03-12T14:59:55;81897.44;;;4.72
64904;BMP280;51401;48.882;12.598;2023-03-12T15:02:21;81597.09;;;4.67
64904;BMP280;51401;48.882;12.598;2023-03-12T15:04:48;81356.28;;;4.60
64904;BMP280;51401;48.882;12.598;2023-03-12T15:07:18;81020.59;;;4.61
64904;BMP280;51401;48.882;12.598;2023-03-12T15:09:47;80699.81;;;4.59
64904;BMP280;51401;48.882;12.598;2023-03-12T15:12:23;80391.09;;;4.59
64904;BMP280;51401;48.882;12.598;2023-03-12T15:14:52;80035.69;;;4.61
64904;BMP280;51401;48.882;12.598;2023-03-12T15:17:20;79792.69;;;4.54
64904;BMP280;51401;48.882;12.598;2023-03-12T15:19:47;79359.16;;;4.60
64904;BMP280;51401;48.882;12.598;2023-03-12T15:22:18;79109.56;;;4.50
64904;BMP280;51401;48.882;12.598;2023-03-12T15:24:45;78658.84;;;4.51
64904;BMP280;51401;48.882;12.598;2023-03-12T15:29:43;77792.53;;;4.53
64904;BMP280;51401;48.882;12.598;2023-03-12T15:32:13;77409.66;;;4.52
64904;BMP280;51401;48.882;12.598;2023-03-12T15:34:39;76908.53;;;4.55
64904;BMP280;51401;48.882;12.598;2023-03-12T15:37:33;76393.34;;;4.64
64904;BMP280;51401;48.882;12.598;2023-03-12T15:40:26;76303.84;;;4.48
64904;BMP280;51401;48.882;12.598;2023-03-12T15:42:53;75708.88;;;4.62
64904;BMP280;51401;48.882;12.598;2023-03-12T15:45:43;75441.19;;;4.60
64904;BMP280;51401;48.882;12.598;2023-03-12T15:50:59;74818.78;;;4.66
64904;BMP280;51401;48.882;12.598;2023-03-12T15:58:32;74223.34;;;4.52
64904;BMP280;51401;48.882;12.598;2023-03-12T16:01:12;74089.66;;;4.49
64904;BMP280;51401;48.882;12.598;2023-03-12T16:03:39;73917.13;;;4.50